aviador You're here:

KAUS Decoded Metar

AUSTIN in TX, USA
Report Time2018-04-21 03:53:00
UTC Time2018-04-21 04:02:59
Flight Rules vfr VFR
Wind110° at 05 kt
W.Decomp.*RWY 17: 2.0 kt HW 4.6 kt LCW
W.Rank110° ranks 20
Current wind is below 110° avg. (5.7)
Visibility9999 m
Phenomena:N/A
Clouds:Broken 049 Hf
Expected CloudBase > 2,000 ft AGL from Temp-Dew spread
Ceiling4,900 ft
Temp14°C (ISA 0)
Dew Point09°C (72% RH)
AAT12.0°C
QNH1018 hPa
Density Alt541 ft
Elevation545 ft
Report Wrong Elevation
Raw Report
KAUS 210353Z 11005KT 10SM BKN049 14/09 A3007 RMK AO2 SLP179
T01440089=

Extra information for KAUS:More info

Metar Taf Metar & Taf Last 4 Metars F.Rules Stats Wind Profile Meteogram Temp Stats Airport Information Weather charts Add Link Nearby VenuesMetar ALERT Operation Metar Decoded Social comments

AIRNAV info for KAUS